sensor_id;sensor_type;location;lat;lon;timestamp;pressure;altitude;pressure_sealevel;temperature;humidity
32324;BME280;25666;44.350;9.222;2022-11-15T00:01:14;102069.13;;;10.69;100.00
32324;BME280;25666;44.350;9.222;2022-11-15T00:03:58;102072.41;;;10.71;100.00
32324;BME280;25666;44.350;9.222;2022-11-15T00:06:42;102061.47;;;10.75;100.00
32324;BME280;25666;44.350;9.222;2022-11-15T00:09:26;102077.03;;;10.76;100.00
32324;BME280;25666;44.350;9.222;2022-11-15T00:12:10;102074.06;;;10.72;100.00
32324;BME280;25666;44.350;9.222;2022-11-15T00:14:54;102057.28;;;10.86;100.00
32324;BME280;25666;44.350;9.222;2022-11-15T00:17:38;102050.78;;;10.99;100.00
32324;BME280;25666;44.350;9.222;2022-11-15T00:20:22;102033.75;;;11.09;100.00
32324;BME280;25666;44.350;9.222;2022-11-15T00:23:06;102037.88;;;11.12;100.00
32324;BME280;25666;44.350;9.222;2022-11-15T00:25:57;102033.09;;;11.04;100.00
32324;BME280;25666;44.350;9.222;2022-11-15T00:28:42;102031.78;;;11.01;100.00
32324;BME280;25666;44.350;9.222;2022-11-15T00:31:26;102027.84;;;11.02;100.00
32324;BME280;25666;44.350;9.222;2022-11-15T00:34:10;102019.63;;;11.06;100.00
32324;BME280;25666;44.350;9.222;2022-11-15T00:36:54;102034.06;;;10.99;100.00
32324;BME280;25666;44.350;9.222;2022-11-15T00:39:38;102028.50;;;10.99;100.00
32324;BME280;25666;44.350;9.222;2022-11-15T00:42:22;102029.00;;;11.10;100.00
32324;BME280;25666;44.350;9.222;2022-11-15T00:45:06;102026.38;;;11.05;100.00
32324;BME280;25666;44.350;9.222;2022-11-15T00:47:51;102022.47;;;11.14;100.00
32324;BME280;25666;44.350;9.222;2022-11-15T00:50:35;102019.03;;;11.17;100.00
32324;BME280;25666;44.350;9.222;2022-11-15T00:53:19;102008.38;;;11.19;100.00
32324;BME280;25666;44.350;9.222;2022-11-15T00:56:03;102005.13;;;11.26;100.00
32324;BME280;25666;44.350;9.222;2022-11-15T00:58:47;102007.59;;;11.27;100.00
32324;BME280;25666;44.350;9.222;2022-11-15T01:01:31;102008.56;;;11.23;100.00
32324;BME280;25666;44.350;9.222;2022-11-15T01:04:15;102000.22;;;11.32;100.00
32324;BME280;25666;44.350;9.222;2022-11-15T01:06:59;101997.25;;;11.28;100.00
32324;BME280;25666;44.350;9.222;2022-11-15T01:09:43;102003.34;;;11.30;100.00
32324;BME280;25666;44.350;9.222;2022-11-15T01:12:27;101987.59;;;11.34;100.00
32324;BME280;25666;44.350;9.222;2022-11-15T01:15:11;101995.47;;;11.32;100.00
32324;BME280;25666;44.350;9.222;2022-11-15T01:17:55;101989.91;;;11.41;100.00
32324;BME280;25666;44.350;9.222;2022-11-15T01:20:43;101995.00;;;11.47;100.00
32324;BME280;25666;44.350;9.222;2022-11-15T01:23:27;101995.34;;;11.46;100.00
32324;BME280;25666;44.350;9.222;2022-11-15T01:26:13;101987.63;;;11.51;100.00
32324;BME280;25666;44.350;9.222;2022-11-15T01:28:58;101988.28;;;11.57;100.00
32324;BME280;25666;44.350;9.222;2022-11-15T01:31:42;101990.09;;;11.61;100.00
32324;BME280;25666;44.350;9.222;2022-11-15T01:34:26;101980.91;;;11.61;100.00
32324;BME280;25666;44.350;9.222;2022-11-15T01:37:10;101977.47;;;11.64;100.00
32324;BME280;25666;44.350;9.222;2022-11-15T01:39:54;101972.53;;;11.69;100.00
32324;BME280;25666;44.350;9.222;2022-11-15T01:42:38;101972.88;;;11.68;100.00
32324;BME280;25666;44.350;9.222;2022-11-15T01:45:22;101965.19;;;11.73;100.00
32324;BME280;25666;44.350;9.222;2022-11-15T01:48:08;101957.13;;;11.63;100.00
32324;BME280;25666;44.350;9.222;2022-11-15T01:50:54;101959.63;;;11.73;100.00
32324;BME280;25666;44.350;9.222;2022-11-15T01:53:40;101960.75;;;11.72;100.00
32324;BME280;25666;44.350;9.222;2022-11-15T01:56:27;101958.94;;;11.68;100.00
32324;BME280;25666;44.350;9.222;2022-11-15T01:59:14;101953.22;;;11.73;100.00
32324;BME280;25666;44.350;9.222;2022-11-15T02:01:58;101946.66;;;11.77;100.00
32324;BME280;25666;44.350;9.222;2022-11-15T02:04:46;101942.88;;;11.82;100.00
32324;BME280;25666;44.350;9.222;2022-11-15T02:10:49;101948.13;;;11.75;100.00
32324;BME280;25666;44.350;9.222;2022-11-15T02:13:34;101942.88;;;11.73;100.00
32324;BME280;25666;44.350;9.222;2022-11-15T02:17:12;101942.88;;;11.82;100.00
32324;BME280;25666;44.350;9.222;2022-11-15T02:20:20;101932.84;;;11.81;100.00
32324;BME280;25666;44.350;9.222;2022-11-15T02:29:03;101921.19;;;11.96;100.00
32324;BME280;25666;44.350;9.222;2022-11-15T02:31:59;101925.94;;;12.04;100.00
32324;BME280;25666;44.350;9.222;2022-11-15T02:35:11;101912.44;;;12.06;100.00
32324;BME280;25666;44.350;9.222;2022-11-15T02:39:00;101902.28;;;12.10;100.00
32324;BME280;25666;44.350;9.222;2022-11-15T02:41:37;101903.88;;;12.20;100.00
32324;BME280;25666;44.350;9.222;2022-11-15T02:44:39;101897.69;;;12.14;100.00
32324;BME280;25666;44.350;9.222;2022-11-15T02:47:31;101913.25;;;12.15;100.00
32324;BME280;25666;44.350;9.222;2022-11-15T02:50:21;101903.25;;;12.14;100.00
32324;BME280;25666;44.350;9.222;2022-11-15T02:53:08;101894.53;;;12.16;100.00
32324;BME280;25666;44.350;9.222;2022-11-15T02:55:53;101899.44;;;12.19;100.00
32324;BME280;25666;44.350;9.222;2022-11-15T02:58:48;101891.06;;;12.27;100.00
32324;BME280;25666;44.350;9.222;2022-11-15T03:05:00;101877.22;;;12.40;100.00
32324;BME280;25666;44.350;9.222;2022-11-15T03:07:57;101880.34;;;12.38;100.00
32324;BME280;25666;44.350;9.222;2022-11-15T03:11:09;101887.41;;;12.35;100.00
32324;BME280;25666;44.350;9.222;2022-11-15T03:19:59;101863.25;;;12.40;100.00
32324;BME280;25666;44.350;9.222;2022-11-15T03:22:47;101872.59;;;12.44;100.00
32324;BME280;25666;44.350;9.222;2022-11-15T03:25:33;101875.06;;;12.45;100.00
32324;BME280;25666;44.350;9.222;2022-11-15T03:28:41;101874.91;;;12.42;100.00
32324;BME280;25666;44.350;9.222;2022-11-15T03:31:31;101875.78;;;12.33;100.00
32324;BME280;25666;44.350;9.222;2022-11-15T03:34:42;101870.97;;;12.43;100.00
32324;BME280;25666;44.350;9.222;2022-11-15T03:38:29;101881.31;;;12.42;100.00
32324;BME280;25666;44.350;9.222;2022-11-15T03:41:04;101880.78;;;12.49;100.00
32324;BME280;25666;44.350;9.222;2022-11-15T03:43:56;101872.06;;;12.50;100.00
32324;BME280;25666;44.350;9.222;2022-11-15T03:46:53;101874.38;;;12.48;100.00
32324;BME280;25666;44.350;9.222;2022-11-15T03:49:52;101872.06;;;12.50;100.00
32324;BME280;25666;44.350;9.222;2022-11-15T03:52:37;101868.81;;;12.48;100.00
32324;BME280;25666;44.350;9.222;2022-11-15T03:55:21;101868.47;;;12.50;100.00
32324;BME280;25666;44.350;9.222;2022-11-15T03:58:06;101860.56;;;12.52;100.00
32324;BME280;25666;44.350;9.222;2022-11-15T04:00:50;101861.41;;;12.52;100.00
32324;BME280;25666;44.350;9.222;2022-11-15T04:03:34;101859.44;;;12.53;100.00
32324;BME280;25666;44.350;9.222;2022-11-15T04:06:18;101857.44;;;12.53;100.00
32324;BME280;25666;44.350;9.222;2022-11-15T04:09:02;101857.09;;;12.55;100.00
32324;BME280;25666;44.350;9.222;2022-11-15T04:11:46;101853.97;;;12.56;100.00
32324;BME280;25666;44.350;9.222;2022-11-15T04:14:30;101845.25;;;12.58;100.00
32324;BME280;25666;44.350;9.222;2022-11-15T04:17:14;101846.91;;;12.59;100.00
32324;BME280;25666;44.350;9.222;2022-11-15T04:19:58;101854.94;;;12.60;100.00
32324;BME280;25666;44.350;9.222;2022-11-15T04:23:04;101842.94;;;12.60;100.00
32324;BME280;25666;44.350;9.222;2022-11-15T04:26:21;101846.56;;;12.60;100.00
32324;BME280;25666;44.350;9.222;2022-11-15T04:29:06;101847.38;;;12.61;100.00
32324;BME280;25666;44.350;9.222;2022-11-15T04:32:09;101843.28;;;12.58;100.00
32324;BME280;25666;44.350;9.222;2022-11-15T04:34:53;101846.22;;;12.62;100.00
32324;BME280;25666;44.350;9.222;2022-11-15T04:37:37;101844.25;;;12.62;100.00
32324;BME280;25666;44.350;9.222;2022-11-15T04:40:21;101841.78;;;12.61;100.00
32324;BME280;25666;44.350;9.222;2022-11-15T04:43:05;101838.84;;;12.57;100.00
32324;BME280;25666;44.350;9.222;2022-11-15T04:45:49;101838.16;;;12.60;100.00
32324;BME280;25666;44.350;9.222;2022-11-15T04:48:33;101837.84;;;12.62;100.00
32324;BME280;25666;44.350;9.222;2022-11-15T04:51:17;101835.88;;;12.62;100.00
32324;BME280;25666;44.350;9.222;2022-11-15T04:54:01;101834.91;;;12.58;100.00
32324;BME280;25666;44.350;9.222;2022-11-15T04:56:45;101839.66;;;12.58;100.00
32324;BME280;25666;44.350;9.222;2022-11-15T04:59:29;101828.97;;;12.60;100.00
32324;BME280;25666;44.350;9.222;2022-11-15T05:02:13;101830.94;;;12.59;100.00
32324;BME280;25666;44.350;9.222;2022-11-15T05:04:57;101830.94;;;12.59;100.00
32324;BME280;25666;44.350;9.222;2022-11-15T05:07:41;101824.06;;;12.57;100.00
32324;BME280;25666;44.350;9.222;2022-11-15T05:10:25;101830.16;;;12.59;100.00
32324;BME280;25666;44.350;9.222;2022-11-15T05:13:09;101830.94;;;12.59;100.00
32324;BME280;25666;44.350;9.222;2022-11-15T05:15:52;101835.38;;;12.60;100.00
32324;BME280;25666;44.350;9.222;2022-11-15T05:18:37;101828.97;;;12.60;100.00
32324;BME280;25666;44.350;9.222;2022-11-15T05:21:24;101835.88;;;12.62;100.00
32324;BME280;25666;44.350;9.222;2022-11-15T05:24:10;101833.88;;;12.63;100.00
32324;BME280;25666;44.350;9.222;2022-11-15T05:26:54;101833.56;;;12.64;100.00
32324;BME280;25666;44.350;9.222;2022-11-15T05:29:38;101838.00;;;12.65;100.00
32324;BME280;25666;44.350;9.222;2022-11-15T05:32:22;101836.81;;;12.66;100.00
32324;BME280;25666;44.350;9.222;2022-11-15T05:35:08;101838.47;;;12.67;100.00
32324;BME280;25666;44.350;9.222;2022-11-15T05:37:56;101837.66;;;12.67;100.00
32324;BME280;25666;44.350;9.222;2022-11-15T05:40:40;101836.81;;;12.66;100.00
32324;BME280;25666;44.350;9.222;2022-11-15T05:43:24;101835.53;;;12.64;100.00
32324;BME280;25666;44.350;9.222;2022-11-15T05:46:08;101842.94;;;12.60;100.00
32324;BME280;25666;44.350;9.222;2022-11-15T05:48:53;101829.47;;;12.62;100.00
32324;BME280;25666;44.350;9.222;2022-11-15T05:51:39;101834.56;;;12.60;100.00
32324;BME280;25666;44.350;9.222;2022-11-15T05:54:25;101837.34;;;12.60;100.00
32324;BME280;25666;44.350;9.222;2022-11-15T05:57:09;101832.25;;;12.62;100.00
32324;BME280;25666;44.350;9.222;2022-11-15T05:59:54;101839.47;;;12.63;100.00
32324;BME280;25666;44.350;9.222;2022-11-15T06:02:38;101842.63;;;12.61;100.00
32324;BME280;25666;44.350;9.222;2022-11-15T06:05:22;101837.03;;;12.61;100.00
32324;BME280;25666;44.350;9.222;2022-11-15T06:08:07;101836.34;;;12.64;100.00
32324;BME280;25666;44.350;9.222;2022-11-15T06:10:50;101831.59;;;12.65;100.00
32324;BME280;25666;44.350;9.222;2022-11-15T06:13:35;101829.63;;;12.65;100.00
32324;BME280;25666;44.350;9.222;2022-11-15T06:16:19;101822.38;;;12.64;100.00
32324;BME280;25666;44.350;9.222;2022-11-15T06:19:03;101821.09;;;12.62;100.00
32324;BME280;25666;44.350;9.222;2022-11-15T06:21:47;101822.91;;;12.58;100.00
32324;BME280;25666;44.350;9.222;2022-11-15T06:24:31;101813.72;;;12.57;100.00
32324;BME280;25666;44.350;9.222;2022-11-15T06:27:15;101808.28;;;12.61;100.00
32324;BME280;25666;44.350;9.222;2022-11-15T06:29:59;101813.03;;;12.60;100.00
32324;BME280;25666;44.350;9.222;2022-11-15T06:32:43;101812.06;;;12.56;100.00
32324;BME280;25666;44.350;9.222;2022-11-15T06:35:28;101806.63;;;12.60;100.00
32324;BME280;25666;44.350;9.222;2022-11-15T06:38:12;101811.59;;;12.54;100.00
32324;BME280;25666;44.350;9.222;2022-11-15T06:41:07;101807.31;;;12.57;100.00
32324;BME280;25666;44.350;9.222;2022-11-15T06:43:51;101799.22;;;12.64;100.00
32324;BME280;25666;44.350;9.222;2022-11-15T06:46:35;101805.47;;;12.61;100.00
32324;BME280;25666;44.350;9.222;2022-11-15T06:49:19;101798.75;;;12.62;100.00
32324;BME280;25666;44.350;9.222;2022-11-15T06:52:03;101810.09;;;12.57;100.00
32324;BME280;25666;44.350;9.222;2022-11-15T06:54:47;101808.88;;;12.66;100.00
32324;BME280;25666;44.350;9.222;2022-11-15T06:57:31;101808.88;;;12.66;100.00
32324;BME280;25666;44.350;9.222;2022-11-15T07:00:17;101815.28;;;12.67;100.00
32324;BME280;25666;44.350;9.222;2022-11-15T07:03:02;101818.09;;;12.67;100.00
32324;BME280;25666;44.350;9.222;2022-11-15T07:05:54;101804.94;;;12.67;100.00
32324;BME280;25666;44.350;9.222;2022-11-15T07:08:38;101797.72;;;12.66;100.00
32324;BME280;25666;44.350;9.222;2022-11-15T07:11:22;101801.13;;;12.72;100.00
32324;BME280;25666;44.350;9.222;2022-11-15T07:14:06;101791.44;;;12.69;100.00
32324;BME280;25666;44.350;9.222;2022-11-15T07:16:50;101791.59;;;12.73;100.00
32324;BME280;25666;44.350;9.222;2022-11-15T07:19:34;101789.34;;;12.66;100.00
32324;BME280;25666;44.350;9.222;2022-11-15T07:22:18;101794.91;;;12.66;100.00
32324;BME280;25666;44.350;9.222;2022-11-15T07:25:02;101789.63;;;12.73;100.00
32324;BME280;25666;44.350;9.222;2022-11-15T07:27:54;101791.72;;;12.76;100.00
32324;BME280;25666;44.350;9.222;2022-11-15T07:30:39;101779.06;;;12.79;100.00
32324;BME280;25666;44.350;9.222;2022-11-15T07:33:22;101780.56;;;12.76;100.00
32324;BME280;25666;44.350;9.222;2022-11-15T07:36:07;101777.16;;;12.71;100.00
32324;BME280;25666;44.350;9.222;2022-11-15T07:38:51;101777.16;;;12.71;100.00
32324;BME280;25666;44.350;9.222;2022-11-15T07:41:35;101771.22;;;12.72;100.00
32324;BME280;25666;44.350;9.222;2022-11-15T07:44:19;101780.56;;;12.76;100.00
32324;BME280;25666;44.350;9.222;2022-11-15T07:47:03;101781.56;;;12.72;100.00
32324;BME280;25666;44.350;9.222;2022-11-15T07:49:47;101768.91;;;12.74;100.00
32324;BME280;25666;44.350;9.222;2022-11-15T07:52:31;101774.00;;;12.72;100.00
32324;BME280;25666;44.350;9.222;2022-11-15T07:55:15;101770.53;;;12.75;100.00
32324;BME280;25666;44.350;9.222;2022-11-15T07:58:03;101765.09;;;12.79;100.00
32324;BME280;25666;44.350;9.222;2022-11-15T08:00:48;101753.09;;;12.78;100.00
32324;BME280;25666;44.350;9.222;2022-11-15T08:03:32;101759.31;;;12.84;100.00
32324;BME280;25666;44.350;9.222;2022-11-15T08:06:16;101753.59;;;12.80;100.00
32324;BME280;25666;44.350;9.222;2022-11-15T08:09:00;101752.53;;;12.85;100.00
32324;BME280;25666;44.350;9.222;2022-11-15T08:11:44;101749.44;;;12.86;100.00
32324;BME280;25666;44.350;9.222;2022-11-15T08:14:28;101747.78;;;12.85;100.00
32324;BME280;25666;44.350;9.222;2022-11-15T08:17:12;101746.81;;;12.81;100.00
32324;BME280;25666;44.350;9.222;2022-11-15T08:19:56;101741.50;;;12.88;100.00
32324;BME280;25666;44.350;9.222;2022-11-15T08:22:39;101744.91;;;12.94;100.00
32324;BME280;25666;44.350;9.222;2022-11-15T08:25:25;101741.97;;;12.90;100.00
32324;BME280;25666;44.350;9.222;2022-11-15T08:28:12;101738.84;;;12.92;100.00
32324;BME280;25666;44.350;9.222;2022-11-15T08:30:56;101746.56;;;12.95;100.00
32324;BME280;25666;44.350;9.222;2022-11-15T08:33:40;101734.56;;;12.95;100.00
32324;BME280;25666;44.350;9.222;2022-11-15T08:36:24;101731.19;;;13.01;100.00
32324;BME280;25666;44.350;9.222;2022-11-15T08:39:10;101735.28;;;13.04;100.00
32324;BME280;25666;44.350;9.222;2022-11-15T08:41:56;101728.53;;;13.05;100.00
32324;BME280;25666;44.350;9.222;2022-11-15T08:44:40;101721.53;;;12.99;100.00
32324;BME280;25666;44.350;9.222;2022-11-15T08:47:24;101724.06;;;12.92;100.00
32324;BME280;25666;44.350;9.222;2022-11-15T08:50:08;101727.81;;;12.96;100.00
32324;BME280;25666;44.350;9.222;2022-11-15T08:52:52;101720.16;;;13.05;100.00
32324;BME280;25666;44.350;9.222;2022-11-15T08:55:37;101718.19;;;13.05;100.00
32324;BME280;25666;44.350;9.222;2022-11-15T08:58:21;101715.34;;;13.14;100.00
32324;BME280;25666;44.350;9.222;2022-11-15T09:01:06;101720.22;;;13.17;100.00
32324;BME280;25666;44.350;9.222;2022-11-15T09:03:57;101711.53;;;13.18;100.00
32324;BME280;25666;44.350;9.222;2022-11-15T09:06:41;101710.69;;;13.18;100.00
32324;BME280;25666;44.350;9.222;2022-11-15T09:09:25;101711.28;;;13.23;100.00
32324;BME280;25666;44.350;9.222;2022-11-15T09:12:09;101710.81;;;13.21;100.00
32324;BME280;25666;44.350;9.222;2022-11-15T09:14:53;101708.97;;;13.25;100.00
32324;BME280;25666;44.350;9.222;2022-11-15T09:17:36;101712.69;;;13.29;100.00
32324;BME280;25666;44.350;9.222;2022-11-15T09:20:21;101718.75;;;13.31;100.00
32324;BME280;25666;44.350;9.222;2022-11-15T09:23:05;101720.13;;;13.25;100.00
32324;BME280;25666;44.350;9.222;2022-11-15T09:25:49;101722.03;;;13.33;100.00
32324;BME280;25666;44.350;9.222;2022-11-15T09:28:33;101723.31;;;13.36;100.00
32324;BME280;25666;44.350;9.222;2022-11-15T09:31:18;101712.59;;;13.38;100.00
32324;BME280;25666;44.350;9.222;2022-11-15T09:34:04;101713.78;;;13.37;100.00
32324;BME280;25666;44.350;9.222;2022-11-15T09:36:48;101706.53;;;13.36;100.00
32324;BME280;25666;44.350;9.222;2022-11-15T09:39:32;101714.13;;;13.35;100.00
32324;BME280;25666;44.350;9.222;2022-11-15T09:42:25;101721.13;;;13.41;100.00
32324;BME280;25666;44.350;9.222;2022-11-15T09:45:19;101720.31;;;13.41;100.00
32324;BME280;25666;44.350;9.222;2022-11-15T09:51:29;101718.44;;;13.45;100.00
32324;BME280;25666;44.350;9.222;2022-11-15T09:56:22;101710.53;;;13.47;100.00
32324;BME280;25666;44.350;9.222;2022-11-15T10:01:59;101721.97;;;13.54;100.00
32324;BME280;25666;44.350;9.222;2022-11-15T10:04:27;101711.25;;;13.56;100.00
32324;BME280;25666;44.350;9.222;2022-11-15T10:07:13;101708.56;;;13.60;100.00
32324;BME280;25666;44.350;9.222;2022-11-15T10:10:01;101704.97;;;13.59;100.00
32324;BME280;25666;44.350;9.222;2022-11-15T10:12:27;101694.34;;;13.53;100.00
32324;BME280;25666;44.350;9.222;2022-11-15T10:15:06;101692.16;;;13.58;100.00
32324;BME280;25666;44.350;9.222;2022-11-15T10:20:27;101687.25;;;13.55;100.00
32324;BME280;25666;44.350;9.222;2022-11-15T10:23:07;101676.06;;;13.55;100.00
32324;BME280;25666;44.350;9.222;2022-11-15T10:25:35;101670.09;;;13.57;100.00
32324;BME280;25666;44.350;9.222;2022-11-15T10:28:17;101672.31;;;13.63;100.00
32324;BME280;25666;44.350;9.222;2022-11-15T10:30:48;101672.19;;;13.60;100.00
32324;BME280;25666;44.350;9.222;2022-11-15T10:33:34;101664.28;;;13.62;100.00
32324;BME280;25666;44.350;9.222;2022-11-15T10:38:40;101642.38;;;13.64;100.00
32324;BME280;25666;44.350;9.222;2022-11-15T10:44:11;101650.88;;;13.67;100.00
32324;BME280;25666;44.350;9.222;2022-11-15T10:46:41;101648.91;;;13.68;100.00
32324;BME280;25666;44.350;9.222;2022-11-15T10:49:27;101644.97;;;13.69;100.00
32324;BME280;25666;44.350;9.222;2022-11-15T10:51:58;101637.13;;;13.74;100.00
32324;BME280;25666;44.350;9.222;2022-11-15T10:59:39;101630.84;;;13.77;100.00
32324;BME280;25666;44.350;9.222;2022-11-15T11:02:27;101620.56;;;13.69;100.00
32324;BME280;25666;44.350;9.222;2022-11-15T11:04:53;101608.81;;;13.64;100.00
32324;BME280;25666;44.350;9.222;2022-11-15T11:07:22;101605.78;;;13.69;100.00
32324;BME280;25666;44.350;9.222;2022-11-15T11:10:18;101604.25;;;13.71;100.00
32324;BME280;25666;44.350;9.222;2022-11-15T11:12:41;101603.44;;;13.71;100.00
32324;BME280;25666;44.350;9.222;2022-11-15T11:15:13;101600.53;;;13.67;100.00
32324;BME280;25666;44.350;9.222;2022-11-15T11:20:36;101581.06;;;13.71;100.00
32324;BME280;25666;44.350;9.222;2022-11-15T11:31:16;101561.59;;;13.74;100.00
32324;BME280;25666;44.350;9.222;2022-11-15T11:45:19;101525.94;;;13.71;100.00
32324;BME280;25666;44.350;9.222;2022-11-15T11:50:34;101513.09;;;13.70;100.00
32324;BME280;25666;44.350;9.222;2022-11-15T11:53:31;101516.34;;;13.72;100.00
32324;BME280;25666;44.350;9.222;2022-11-15T11:56:13;101514.72;;;13.71;100.00
32324;BME280;25666;44.350;9.222;2022-11-15T11:58:43;101509.84;;;13.68;100.00
32324;BME280;25666;44.350;9.222;2022-11-15T12:01:20;101503.88;;;13.70;100.00
32324;BME280;25666;44.350;9.222;2022-11-15T12:04:08;101511.34;;;13.66;100.00
32324;BME280;25666;44.350;9.222;2022-11-15T12:06:45;101504.97;;;13.65;100.00
32324;BME280;25666;44.350;9.222;2022-11-15T12:09:35;101495.19;;;13.59;100.00
32324;BME280;25666;44.350;9.222;2022-11-15T12:14:57;101500.97;;;13.66;100.00
32324;BME280;25666;44.350;9.222;2022-11-15T12:17:28;101491.53;;;13.71;100.00
32324;BME280;25666;44.350;9.222;2022-11-15T12:19:59;101485.38;;;13.65;100.00
32324;BME280;25666;44.350;9.222;2022-11-15T12:22:44;101480.94;;;13.64;100.00
32324;BME280;25666;44.350;9.222;2022-11-15T12:25:23;101489.06;;;13.69;100.00
32324;BME280;25666;44.350;9.222;2022-11-15T12:28:06;101477.53;;;13.71;100.00
32324;BME280;25666;44.350;9.222;2022-11-15T12:31:05;101474.38;;;13.72;100.00
32324;BME280;25666;44.350;9.222;2022-11-15T12:33:43;101465.97;;;13.72;100.00
32324;BME280;25666;44.350;9.222;2022-11-15T12:36:12;101464.25;;;13.68;100.00
32324;BME280;25666;44.350;9.222;2022-11-15T12:38:56;101465.19;;;13.72;100.00
32324;BME280;25666;44.350;9.222;2022-11-15T12:41:24;101462.63;;;13.67;100.00
32324;BME280;25666;44.350;9.222;2022-11-15T12:43:50;101460.38;;;13.72;100.00
32324;BME280;25666;44.350;9.222;2022-11-15T12:59:52;101420.63;;;13.79;100.00
32324;BME280;25666;44.350;9.222;2022-11-15T13:02:25;101421.53;;;13.83;100.00
32324;BME280;25666;44.350;9.222;2022-11-15T13:04:54;101419.09;;;13.81;100.00
32324;BME280;25666;44.350;9.222;2022-11-15T13:17:42;101411.16;;;13.83;100.00
32324;BME280;25666;44.350;9.222;2022-11-15T13:27:58;101396.34;;;13.83;100.00
32324;BME280;25666;44.350;9.222;2022-11-15T13:30:26;101382.38;;;13.83;100.00
32324;BME280;25666;44.350;9.222;2022-11-15T13:32:53;101378.41;;;13.84;100.00
32324;BME280;25666;44.350;9.222;2022-11-15T13:35:27;101383.91;;;13.80;100.00
32324;BME280;25666;44.350;9.222;2022-11-15T13:37:54;101384.81;;;13.84;100.00
32324;BME280;25666;44.350;9.222;2022-11-15T13:40:29;101374.41;;;13.85;100.00
32324;BME280;25666;44.350;9.222;2022-11-15T13:42:59;101371.63;;;13.85;100.00
32324;BME280;25666;44.350;9.222;2022-11-15T13:45:25;101365.56;;;13.83;100.00
32324;BME280;25666;44.350;9.222;2022-11-15T13:47:57;101359.97;;;13.83;100.00
32324;BME280;25666;44.350;9.222;2022-11-15T13:50:33;101365.22;;;13.84;100.00
32324;BME280;25666;44.350;9.222;2022-11-15T13:53:03;101361.72;;;13.87;100.00
32324;BME280;25666;44.350;9.222;2022-11-15T13:55:31;101360.69;;;13.80;100.00
32324;BME280;25666;44.350;9.222;2022-11-15T13:58:02;101360.09;;;13.86;100.00
32324;BME280;25666;44.350;9.222;2022-11-15T14:00:33;101358.34;;;13.82;100.00
32324;BME280;25666;44.350;9.222;2022-11-15T14:03:19;101355.66;;;13.85;100.00
32324;BME280;25666;44.350;9.222;2022-11-15T14:08:32;101361.50;;;13.80;100.00
32324;BME280;25666;44.350;9.222;2022-11-15T14:11:18;101365.56;;;13.83;100.00
32324;BME280;25666;44.350;9.222;2022-11-15T14:19:08;101355.31;;;13.87;100.00
32324;BME280;25666;44.350;9.222;2022-11-15T14:21:34;101340.59;;;13.90;100.00
32324;BME280;25666;44.350;9.222;2022-11-15T14:24:18;101349.44;;;13.92;100.00
32324;BME280;25666;44.350;9.222;2022-11-15T14:26:44;101341.75;;;13.89;100.00
32324;BME280;25666;44.350;9.222;2022-11-15T14:29:29;101335.88;;;13.94;100.00
32324;BME280;25666;44.350;9.222;2022-11-15T14:32:23;101321.16;;;13.97;100.00
32324;BME280;25666;44.350;9.222;2022-11-15T14:34:57;101320.94;;;14.02;100.00
32324;BME280;25666;44.350;9.222;2022-11-15T14:37:26;101314.50;;;14.02;100.00
32324;BME280;25666;44.350;9.222;2022-11-15T14:39:52;101310.06;;;14.01;100.00
32324;BME280;25666;44.350;9.222;2022-11-15T14:42:19;101306.50;;;14.00;100.00
32324;BME280;25666;44.350;9.222;2022-11-15T14:44:45;101302.22;;;13.90;100.00
32324;BME280;25666;44.350;9.222;2022-11-15T14:47:11;101303.50;;;13.93;100.00
32324;BME280;25666;44.350;9.222;2022-11-15T14:49:37;101301.56;;;13.97;100.00
32324;BME280;25666;44.350;9.222;2022-11-15T14:52:21;101299.50;;;13.94;100.00
32324;BME280;25666;44.350;9.222;2022-11-15T14:54:48;101299.16;;;13.95;100.00
32324;BME280;25666;44.350;9.222;2022-11-15T14:57:14;101294.72;;;13.94;100.00
32324;BME280;25666;44.350;9.222;2022-11-15T14:59:39;101300.69;;;13.93;100.00
32324;BME280;25666;44.350;9.222;2022-11-15T15:02:19;101291.09;;;13.94;100.00
32324;BME280;25666;44.350;9.222;2022-11-15T15:04:46;101289.13;;;13.94;100.00
32324;BME280;25666;44.350;9.222;2022-11-15T15:07:11;101290.22;;;13.90;100.00
32324;BME280;25666;44.350;9.222;2022-11-15T15:09:37;101283.38;;;13.87;100.00
32324;BME280;25666;44.350;9.222;2022-11-15T15:12:04;101287.78;;;13.88;100.00
32324;BME280;25666;44.350;9.222;2022-11-15T15:14:30;101283.91;;;13.93;100.00
32324;BME280;25666;44.350;9.222;2022-11-15T15:16:55;101282.72;;;13.94;100.00
32324;BME280;25666;44.350;9.222;2022-11-15T15:19:21;101288.78;;;13.96;100.00
32324;BME280;25666;44.350;9.222;2022-11-15T15:21:46;101275.13;;;13.94;100.00
32324;BME280;25666;44.350;9.222;2022-11-15T15:24:15;101268.38;;;13.95;100.00
32324;BME280;25666;44.350;9.222;2022-11-15T15:26:41;101272.81;;;13.97;100.00
32324;BME280;25666;44.350;9.222;2022-11-15T15:29:09;101268.47;;;13.99;100.00
32324;BME280;25666;44.350;9.222;2022-11-15T15:31:35;101271.72;;;14.01;100.00
32324;BME280;25666;44.350;9.222;2022-11-15T15:34:01;101258.09;;;14.00;100.00
32324;BME280;25666;44.350;9.222;2022-11-15T15:36:26;101261.31;;;14.02;100.00
32324;BME280;25666;44.350;9.222;2022-11-15T15:38:52;101262.88;;;13.99;100.00
32324;BME280;25666;44.350;9.222;2022-11-15T15:41:17;101258.91;;;14.00;100.00
32324;BME280;25666;44.350;9.222;2022-11-15T15:43:43;101256.09;;;14.00;100.00
32324;BME280;25666;44.350;9.222;2022-11-15T15:46:12;101257.72;;;14.01;100.00